sensor_id;sensor_type;location;lat;lon;timestamp;P1;durP1;ratioP1;P2;durP2;ratioP2
79365;SDS011;68833;53.160;17.920;2024-02-21T00:00:09;13.00;;;4.80;;
79365;SDS011;68833;53.160;17.920;2024-02-21T00:02:57;14.20;;;5.00;;
79365;SDS011;68833;53.160;17.920;2024-02-21T00:05:25;11.70;;;5.40;;
79365;SDS011;68833;53.160;17.920;2024-02-21T00:07:51;10.60;;;4.90;;
79365;SDS011;68833;53.160;17.920;2024-02-21T00:10:17;10.80;;;5.30;;
79365;SDS011;68833;53.160;17.920;2024-02-21T00:12:45;16.30;;;5.80;;
79365;SDS011;68833;53.160;17.920;2024-02-21T00:15:11;9.40;;;4.80;;
79365;SDS011;68833;53.160;17.920;2024-02-21T00:17:40;12.50;;;5.60;;
79365;SDS011;68833;53.160;17.920;2024-02-21T00:20:07;13.50;;;5.40;;
79365;SDS011;68833;53.160;17.920;2024-02-21T00:22:33;18.40;;;6.10;;
79365;SDS011;68833;53.160;17.920;2024-02-21T00:24:59;10.20;;;5.60;;
79365;SDS011;68833;53.160;17.920;2024-02-21T00:27:25;13.10;;;5.50;;
79365;SDS011;68833;53.160;17.920;2024-02-21T00:29:52;13.40;;;5.90;;
79365;SDS011;68833;53.160;17.920;2024-02-21T00:32:18;10.30;;;4.90;;
79365;SDS011;68833;53.160;17.920;2024-02-21T00:34:44;8.90;;;4.70;;
79365;SDS011;68833;53.160;17.920;2024-02-21T00:37:11;13.50;;;5.70;;
79365;SDS011;68833;53.160;17.920;2024-02-21T00:39:37;17.50;;;5.90;;
79365;SDS011;68833;53.160;17.920;2024-02-21T00:42:03;17.60;;;6.10;;
79365;SDS011;68833;53.160;17.920;2024-02-21T00:44:30;11.00;;;5.60;;
79365;SDS011;68833;53.160;17.920;2024-02-21T00:46:57;9.90;;;5.10;;
79365;SDS011;68833;53.160;17.920;2024-02-21T00:49:23;12.70;;;5.60;;
79365;SDS011;68833;53.160;17.920;2024-02-21T00:51:49;16.50;;;6.50;;
79365;SDS011;68833;53.160;17.920;2024-02-21T00:54:16;14.80;;;5.60;;
79365;SDS011;68833;53.160;17.920;2024-02-21T00:56:42;14.10;;;5.20;;
79365;SDS011;68833;53.160;17.920;2024-02-21T00:59:09;17.40;;;5.10;;
79365;SDS011;68833;53.160;17.920;2024-02-21T01:01:35;11.70;;;5.30;;
79365;SDS011;68833;53.160;17.920;2024-02-21T01:04:01;9.60;;;4.70;;
79365;SDS011;68833;53.160;17.920;2024-02-21T01:06:27;19.10;;;5.90;;
79365;SDS011;68833;53.160;17.920;2024-02-21T01:08:54;18.70;;;5.90;;
79365;SDS011;68833;53.160;17.920;2024-02-21T01:11:20;13.30;;;5.40;;
79365;SDS011;68833;53.160;17.920;2024-02-21T01:13:46;10.60;;;4.20;;
79365;SDS011;68833;53.160;17.920;2024-02-21T01:16:12;12.20;;;4.20;;
79365;SDS011;68833;53.160;17.920;2024-02-21T01:18:39;12.10;;;4.20;;
79365;SDS011;68833;53.160;17.920;2024-02-21T01:21:06;16.70;;;5.40;;
79365;SDS011;68833;53.160;17.920;2024-02-21T01:23:33;12.80;;;4.80;;
79365;SDS011;68833;53.160;17.920;2024-02-21T01:26:00;15.10;;;5.20;;
79365;SDS011;68833;53.160;17.920;2024-02-21T01:28:26;12.10;;;4.40;;
79365;SDS011;68833;53.160;17.920;2024-02-21T01:30:53;15.60;;;5.30;;
79365;SDS011;68833;53.160;17.920;2024-02-21T01:33:19;18.10;;;4.70;;
79365;SDS011;68833;53.160;17.920;2024-02-21T01:35:45;15.80;;;6.90;;
79365;SDS011;68833;53.160;17.920;2024-02-21T01:38:12;23.70;;;7.00;;
79365;SDS011;68833;53.160;17.920;2024-02-21T01:40:39;14.30;;;6.20;;
79365;SDS011;68833;53.160;17.920;2024-02-21T01:43:14;14.10;;;4.90;;
79365;SDS011;68833;53.160;17.920;2024-02-21T01:45:46;13.70;;;5.60;;
79365;SDS011;68833;53.160;17.920;2024-02-21T01:48:16;14.30;;;6.10;;
79365;SDS011;68833;53.160;17.920;2024-02-21T01:50:44;14.10;;;7.70;;
79365;SDS011;68833;53.160;17.920;2024-02-21T01:53:12;16.70;;;6.40;;
79365;SDS011;68833;53.160;17.920;2024-02-21T01:55:47;16.30;;;6.60;;
79365;SDS011;68833;53.160;17.920;2024-02-21T01:58:14;15.20;;;6.70;;
79365;SDS011;68833;53.160;17.920;2024-02-21T02:00:42;16.90;;;7.00;;
79365;SDS011;68833;53.160;17.920;2024-02-21T02:11:51;15.60;;;6.20;;
79365;SDS011;68833;53.160;17.920;2024-02-21T02:14:18;12.60;;;5.80;;
79365;SDS011;68833;53.160;17.920;2024-02-21T02:16:47;17.30;;;6.70;;
79365;SDS011;68833;53.160;17.920;2024-02-21T02:19:14;17.00;;;6.20;;
79365;SDS011;68833;53.160;17.920;2024-02-21T02:21:42;15.10;;;6.30;;
79365;SDS011;68833;53.160;17.920;2024-02-21T02:24:22;17.70;;;7.50;;
79365;SDS011;68833;53.160;17.920;2024-02-21T02:26:50;18.50;;;7.70;;
79365;SDS011;68833;53.160;17.920;2024-02-21T02:29:17;19.90;;;8.50;;
79365;SDS011;68833;53.160;17.920;2024-02-21T02:31:43;17.70;;;6.70;;
79365;SDS011;68833;53.160;17.920;2024-02-21T02:34:10;22.50;;;7.40;;
79365;SDS011;68833;53.160;17.920;2024-02-21T02:36:36;19.40;;;7.80;;
79365;SDS011;68833;53.160;17.920;2024-02-21T02:39:02;14.80;;;8.10;;
79365;SDS011;68833;53.160;17.920;2024-02-21T02:41:29;20.40;;;7.80;;
79365;SDS011;68833;53.160;17.920;2024-02-21T02:43:55;16.20;;;7.60;;
79365;SDS011;68833;53.160;17.920;2024-02-21T02:46:21;21.70;;;7.90;;
79365;SDS011;68833;53.160;17.920;2024-02-21T02:48:48;20.00;;;7.20;;
79365;SDS011;68833;53.160;17.920;2024-02-21T02:51:14;19.60;;;7.20;;
79365;SDS011;68833;53.160;17.920;2024-02-21T02:53:40;16.10;;;5.20;;
79365;SDS011;68833;53.160;17.920;2024-02-21T02:56:06;19.80;;;7.60;;
79365;SDS011;68833;53.160;17.920;2024-02-21T02:58:33;14.90;;;6.90;;
79365;SDS011;68833;53.160;17.920;2024-02-21T03:01:00;19.00;;;7.10;;
79365;SDS011;68833;53.160;17.920;2024-02-21T03:03:28;17.30;;;7.00;;
79365;SDS011;68833;53.160;17.920;2024-02-21T03:05:55;21.10;;;7.10;;
79365;SDS011;68833;53.160;17.920;2024-02-21T03:08:21;15.70;;;6.20;;
79365;SDS011;68833;53.160;17.920;2024-02-21T03:10:48;15.80;;;6.30;;
79365;SDS011;68833;53.160;17.920;2024-02-21T03:13:14;22.40;;;7.40;;
79365;SDS011;68833;53.160;17.920;2024-02-21T03:15:41;18.90;;;7.00;;
79365;SDS011;68833;53.160;17.920;2024-02-21T03:18:08;19.40;;;6.90;;
79365;SDS011;68833;53.160;17.920;2024-02-21T03:20:34;16.70;;;6.30;;
79365;SDS011;68833;53.160;17.920;2024-02-21T03:23:00;15.00;;;5.50;;
79365;SDS011;68833;53.160;17.920;2024-02-21T03:25:27;12.10;;;6.00;;
79365;SDS011;68833;53.160;17.920;2024-02-21T03:27:53;20.10;;;6.80;;
79365;SDS011;68833;53.160;17.920;2024-02-21T03:30:19;15.50;;;5.50;;
79365;SDS011;68833;53.160;17.920;2024-02-21T03:32:46;26.60;;;7.60;;
79365;SDS011;68833;53.160;17.920;2024-02-21T03:35:13;16.50;;;6.30;;
79365;SDS011;68833;53.160;17.920;2024-02-21T03:37:39;15.70;;;7.30;;
79365;SDS011;68833;53.160;17.920;2024-02-21T03:40:07;17.50;;;6.20;;
79365;SDS011;68833;53.160;17.920;2024-02-21T03:42:35;16.90;;;6.60;;
79365;SDS011;68833;53.160;17.920;2024-02-21T03:45:01;19.20;;;7.50;;
79365;SDS011;68833;53.160;17.920;2024-02-21T03:47:27;23.00;;;7.50;;
79365;SDS011;68833;53.160;17.920;2024-02-21T03:49:54;15.20;;;6.40;;
79365;SDS011;68833;53.160;17.920;2024-02-21T03:52:20;15.30;;;6.90;;
79365;SDS011;68833;53.160;17.920;2024-02-21T03:54:46;13.90;;;5.80;;
79365;SDS011;68833;53.160;17.920;2024-02-21T03:57:13;19.70;;;7.20;;
79365;SDS011;68833;53.160;17.920;2024-02-21T03:59:39;19.30;;;8.80;;
79365;SDS011;68833;53.160;17.920;2024-02-21T04:02:06;19.50;;;8.80;;
79365;SDS011;68833;53.160;17.920;2024-02-21T04:04:34;19.30;;;7.00;;
79365;SDS011;68833;53.160;17.920;2024-02-21T04:07:04;18.70;;;7.90;;
79365;SDS011;68833;53.160;17.920;2024-02-21T04:09:34;16.50;;;6.40;;
79365;SDS011;68833;53.160;17.920;2024-02-21T04:12:01;21.80;;;8.90;;
79365;SDS011;68833;53.160;17.920;2024-02-21T04:14:27;22.10;;;9.40;;
79365;SDS011;68833;53.160;17.920;2024-02-21T04:16:53;16.40;;;7.60;;
79365;SDS011;68833;53.160;17.920;2024-02-21T04:19:19;16.80;;;6.60;;
79365;SDS011;68833;53.160;17.920;2024-02-21T04:21:46;18.30;;;6.80;;
79365;SDS011;68833;53.160;17.920;2024-02-21T04:24:12;20.00;;;6.50;;
79365;SDS011;68833;53.160;17.920;2024-02-21T04:26:39;21.10;;;7.40;;
79365;SDS011;68833;53.160;17.920;2024-02-21T04:29:05;16.40;;;6.80;;
79365;SDS011;68833;53.160;17.920;2024-02-21T04:31:34;15.90;;;6.80;;
79365;SDS011;68833;53.160;17.920;2024-02-21T04:34:01;16.70;;;8.10;;
79365;SDS011;68833;53.160;17.920;2024-02-21T04:36:28;14.00;;;7.50;;
79365;SDS011;68833;53.160;17.920;2024-02-21T04:38:54;14.50;;;7.70;;
79365;SDS011;68833;53.160;17.920;2024-02-21T04:41:21;16.60;;;8.30;;
79365;SDS011;68833;53.160;17.920;2024-02-21T04:43:48;17.20;;;8.90;;
79365;SDS011;68833;53.160;17.920;2024-02-21T04:46:14;19.30;;;8.20;;
79365;SDS011;68833;53.160;17.920;2024-02-21T04:48:41;20.80;;;8.40;;
79365;SDS011;68833;53.160;17.920;2024-02-21T04:51:07;16.70;;;7.80;;
79365;SDS011;68833;53.160;17.920;2024-02-21T04:53:34;17.00;;;6.90;;
79365;SDS011;68833;53.160;17.920;2024-02-21T04:56:01;17.00;;;7.60;;
79365;SDS011;68833;53.160;17.920;2024-02-21T04:58:27;18.50;;;7.50;;
79365;SDS011;68833;53.160;17.920;2024-02-21T05:00:53;15.80;;;7.10;;
79365;SDS011;68833;53.160;17.920;2024-02-21T05:03:21;13.40;;;6.00;;
79365;SDS011;68833;53.160;17.920;2024-02-21T05:05:47;16.60;;;7.00;;
79365;SDS011;68833;53.160;17.920;2024-02-21T05:08:14;14.60;;;5.90;;
79365;SDS011;68833;53.160;17.920;2024-02-21T05:10:41;19.30;;;8.10;;
79365;SDS011;68833;53.160;17.920;2024-02-21T05:13:09;17.70;;;7.70;;
79365;SDS011;68833;53.160;17.920;2024-02-21T05:15:35;14.30;;;7.40;;
79365;SDS011;68833;53.160;17.920;2024-02-21T05:18:02;19.60;;;7.30;;
79365;SDS011;68833;53.160;17.920;2024-02-21T05:20:28;16.80;;;7.30;;
79365;SDS011;68833;53.160;17.920;2024-02-21T05:22:54;15.30;;;6.70;;
79365;SDS011;68833;53.160;17.920;2024-02-21T05:25:21;13.50;;;7.70;;
79365;SDS011;68833;53.160;17.920;2024-02-21T05:27:47;14.20;;;7.40;;
79365;SDS011;68833;53.160;17.920;2024-02-21T05:30:14;12.00;;;7.70;;
79365;SDS011;68833;53.160;17.920;2024-02-21T05:32:40;17.40;;;7.10;;
79365;SDS011;68833;53.160;17.920;2024-02-21T05:35:07;12.30;;;6.90;;
79365;SDS011;68833;53.160;17.920;2024-02-21T05:37:33;12.70;;;6.60;;
79365;SDS011;68833;53.160;17.920;2024-02-21T05:40:00;19.70;;;7.30;;
79365;SDS011;68833;53.160;17.920;2024-02-21T05:42:26;15.20;;;7.30;;
79365;SDS011;68833;53.160;17.920;2024-02-21T05:44:52;19.40;;;8.30;;
79365;SDS011;68833;53.160;17.920;2024-02-21T05:47:18;15.90;;;7.50;;
79365;SDS011;68833;53.160;17.920;2024-02-21T05:49:47;14.90;;;6.10;;
79365;SDS011;68833;53.160;17.920;2024-02-21T05:52:14;14.10;;;6.40;;
79365;SDS011;68833;53.160;17.920;2024-02-21T05:54:40;15.70;;;7.10;;
79365;SDS011;68833;53.160;17.920;2024-02-21T05:57:07;23.70;;;8.40;;
79365;SDS011;68833;53.160;17.920;2024-02-21T05:59:34;16.00;;;8.60;;
79365;SDS011;68833;53.160;17.920;2024-02-21T06:02:02;14.30;;;7.80;;
79365;SDS011;68833;53.160;17.920;2024-02-21T06:04:30;17.00;;;8.10;;
79365;SDS011;68833;53.160;17.920;2024-02-21T06:06:56;14.70;;;7.10;;
79365;SDS011;68833;53.160;17.920;2024-02-21T06:09:22;13.60;;;6.50;;
79365;SDS011;68833;53.160;17.920;2024-02-21T06:11:48;19.70;;;8.60;;
79365;SDS011;68833;53.160;17.920;2024-02-21T06:14:15;19.70;;;8.60;;
79365;SDS011;68833;53.160;17.920;2024-02-21T06:16:41;21.20;;;8.70;;
79365;SDS011;68833;53.160;17.920;2024-02-21T06:19:09;20.20;;;8.10;;
79365;SDS011;68833;53.160;17.920;2024-02-21T06:21:36;15.00;;;7.90;;
79365;SDS011;68833;53.160;17.920;2024-02-21T06:24:03;19.00;;;8.30;;
79365;SDS011;68833;53.160;17.920;2024-02-21T06:26:30;22.50;;;9.60;;
79365;SDS011;68833;53.160;17.920;2024-02-21T06:28:56;24.60;;;10.30;;
79365;SDS011;68833;53.160;17.920;2024-02-21T06:31:23;24.30;;;9.90;;
79365;SDS011;68833;53.160;17.920;2024-02-21T06:33:49;21.20;;;9.40;;
79365;SDS011;68833;53.160;17.920;2024-02-21T06:36:15;25.70;;;9.60;;
79365;SDS011;68833;53.160;17.920;2024-02-21T06:38:41;19.40;;;8.70;;
79365;SDS011;68833;53.160;17.920;2024-02-21T06:41:15;22.80;;;11.00;;
79365;SDS011;68833;53.160;17.920;2024-02-21T06:43:42;26.10;;;10.70;;
79365;SDS011;68833;53.160;17.920;2024-02-21T06:46:09;17.60;;;8.80;;
79365;SDS011;68833;53.160;17.920;2024-02-21T06:48:35;19.80;;;9.00;;
79365;SDS011;68833;53.160;17.920;2024-02-21T06:51:01;16.50;;;7.40;;
79365;SDS011;68833;53.160;17.920;2024-02-21T06:53:28;22.90;;;10.10;;
79365;SDS011;68833;53.160;17.920;2024-02-21T06:55:54;25.00;;;9.00;;
79365;SDS011;68833;53.160;17.920;2024-02-21T06:58:20;18.20;;;10.20;;
79365;SDS011;68833;53.160;17.920;2024-02-21T07:00:46;26.10;;;13.30;;
79365;SDS011;68833;53.160;17.920;2024-02-21T07:03:13;25.60;;;10.60;;
79365;SDS011;68833;53.160;17.920;2024-02-21T07:05:39;27.30;;;11.10;;
79365;SDS011;68833;53.160;17.920;2024-02-21T07:08:05;17.50;;;7.80;;
79365;SDS011;68833;53.160;17.920;2024-02-21T07:10:32;30.80;;;12.10;;
79365;SDS011;68833;53.160;17.920;2024-02-21T07:12:58;30.40;;;12.80;;
79365;SDS011;68833;53.160;17.920;2024-02-21T07:15:24;32.30;;;13.20;;
79365;SDS011;68833;53.160;17.920;2024-02-21T07:17:52;24.50;;;9.70;;
79365;SDS011;68833;53.160;17.920;2024-02-21T07:20:19;21.20;;;9.00;;
79365;SDS011;68833;53.160;17.920;2024-02-21T07:22:45;15.20;;;7.60;;
79365;SDS011;68833;53.160;17.920;2024-02-21T07:25:12;26.00;;;10.20;;
79365;SDS011;68833;53.160;17.920;2024-02-21T07:27:38;18.30;;;8.70;;
79365;SDS011;68833;53.160;17.920;2024-02-21T07:30:06;24.20;;;9.30;;
79365;SDS011;68833;53.160;17.920;2024-02-21T07:32:32;18.50;;;7.80;;
79365;SDS011;68833;53.160;17.920;2024-02-21T07:34:58;19.50;;;7.60;;
79365;SDS011;68833;53.160;17.920;2024-02-21T07:37:25;22.00;;;8.10;;
79365;SDS011;68833;53.160;17.920;2024-02-21T07:39:51;20.00;;;8.00;;
79365;SDS011;68833;53.160;17.920;2024-02-21T07:42:18;21.80;;;9.40;;
79365;SDS011;68833;53.160;17.920;2024-02-21T07:44:45;28.80;;;9.70;;
79365;SDS011;68833;53.160;17.920;2024-02-21T07:47:11;15.50;;;6.20;;
79365;SDS011;68833;53.160;17.920;2024-02-21T07:49:41;10.60;;;6.30;;
79365;SDS011;68833;53.160;17.920;2024-02-21T07:52:10;15.80;;;8.50;;
79365;SDS011;68833;53.160;17.920;2024-02-21T07:54:36;22.50;;;9.80;;
79365;SDS011;68833;53.160;17.920;2024-02-21T07:57:02;21.40;;;8.30;;
79365;SDS011;68833;53.160;17.920;2024-02-21T07:59:29;19.80;;;8.70;;
79365;SDS011;68833;53.160;17.920;2024-02-21T08:01:56;17.80;;;7.20;;
79365;SDS011;68833;53.160;17.920;2024-02-21T08:04:23;19.70;;;6.50;;
79365;SDS011;68833;53.160;17.920;2024-02-21T08:06:53;12.60;;;5.40;;
79365;SDS011;68833;53.160;17.920;2024-02-21T08:09:27;20.00;;;8.40;;
79365;SDS011;68833;53.160;17.920;2024-02-21T08:11:54;21.30;;;7.80;;
79365;SDS011;68833;53.160;17.920;2024-02-21T08:14:20;19.10;;;7.70;;
79365;SDS011;68833;53.160;17.920;2024-02-21T08:16:48;18.10;;;7.50;;
79365;SDS011;68833;53.160;17.920;2024-02-21T08:19:14;13.10;;;6.60;;
79365;SDS011;68833;53.160;17.920;2024-02-21T08:21:41;15.00;;;5.80;;
79365;SDS011;68833;53.160;17.920;2024-02-21T08:24:07;12.30;;;5.20;;
79365;SDS011;68833;53.160;17.920;2024-02-21T08:26:33;17.50;;;7.80;;
79365;SDS011;68833;53.160;17.920;2024-02-21T08:29:13;19.40;;;7.30;;
79365;SDS011;68833;53.160;17.920;2024-02-21T08:31:39;18.90;;;7.40;;
79365;SDS011;68833;53.160;17.920;2024-02-21T08:34:06;13.20;;;6.10;;
79365;SDS011;68833;53.160;17.920;2024-02-21T08:36:33;18.30;;;7.00;;
79365;SDS011;68833;53.160;17.920;2024-02-21T08:39:00;12.80;;;6.20;;
79365;SDS011;68833;53.160;17.920;2024-02-21T08:41:32;14.30;;;7.60;;
79365;SDS011;68833;53.160;17.920;2024-02-21T08:43:59;18.20;;;8.00;;
79365;SDS011;68833;53.160;17.920;2024-02-21T08:46:26;14.80;;;6.80;;
79365;SDS011;68833;53.160;17.920;2024-02-21T08:48:53;16.50;;;6.60;;
79365;SDS011;68833;53.160;17.920;2024-02-21T08:51:20;7.70;;;4.50;;
79365;SDS011;68833;53.160;17.920;2024-02-21T08:53:47;9.50;;;4.50;;
79365;SDS011;68833;53.160;17.920;2024-02-21T08:56:14;20.70;;;9.50;;
79365;SDS011;68833;53.160;17.920;2024-02-21T08:58:41;19.60;;;7.90;;
79365;SDS011;68833;53.160;17.920;2024-02-21T09:01:07;19.20;;;8.30;;
79365;SDS011;68833;53.160;17.920;2024-02-21T09:03:37;16.90;;;8.00;;
79365;SDS011;68833;53.160;17.920;2024-02-21T09:06:04;13.40;;;6.60;;
79365;SDS011;68833;53.160;17.920;2024-02-21T09:08:32;15.60;;;7.80;;
79365;SDS011;68833;53.160;17.920;2024-02-21T09:10:59;15.80;;;8.00;;
79365;SDS011;68833;53.160;17.920;2024-02-21T09:13:25;18.60;;;8.20;;
79365;SDS011;68833;53.160;17.920;2024-02-21T09:15:52;14.40;;;7.30;;
79365;SDS011;68833;53.160;17.920;2024-02-21T09:18:19;11.40;;;5.20;;
79365;SDS011;68833;53.160;17.920;2024-02-21T09:20:45;11.80;;;5.50;;
79365;SDS011;68833;53.160;17.920;2024-02-21T09:23:11;13.50;;;6.30;;
79365;SDS011;68833;53.160;17.920;2024-02-21T09:25:38;18.30;;;7.00;;
79365;SDS011;68833;53.160;17.920;2024-02-21T09:28:04;12.40;;;6.10;;
79365;SDS011;68833;53.160;17.920;2024-02-21T09:30:32;13.80;;;7.30;;
79365;SDS011;68833;53.160;17.920;2024-02-21T09:32:59;18.00;;;8.60;;
79365;SDS011;68833;53.160;17.920;2024-02-21T09:35:27;17.30;;;7.40;;
79365;SDS011;68833;53.160;17.920;2024-02-21T09:37:54;13.10;;;6.80;;
79365;SDS011;68833;53.160;17.920;2024-02-21T09:40:20;18.20;;;7.70;;
79365;SDS011;68833;53.160;17.920;2024-02-21T09:42:47;12.90;;;6.30;;
79365;SDS011;68833;53.160;17.920;2024-02-21T09:45:22;16.50;;;7.70;;
79365;SDS011;68833;53.160;17.920;2024-02-21T09:50:46;10.90;;;5.80;;
79365;SDS011;68833;53.160;17.920;2024-02-21T09:53:13;15.00;;;6.60;;
79365;SDS011;68833;53.160;17.920;2024-02-21T09:55:41;13.00;;;6.60;;
79365;SDS011;68833;53.160;17.920;2024-02-21T09:58:09;11.80;;;4.80;;
79365;SDS011;68833;53.160;17.920;2024-02-21T10:00:36;12.10;;;6.10;;
79365;SDS011;68833;53.160;17.920;2024-02-21T10:03:04;15.60;;;7.70;;
79365;SDS011;68833;53.160;17.920;2024-02-21T10:05:33;12.90;;;7.50;;
79365;SDS011;68833;53.160;17.920;2024-02-21T10:08:01;12.20;;;6.00;;
79365;SDS011;68833;53.160;17.920;2024-02-21T10:10:28;15.20;;;6.50;;
79365;SDS011;68833;53.160;17.920;2024-02-21T10:12:56;10.20;;;5.60;;
79365;SDS011;68833;53.160;17.920;2024-02-21T10:15:24;10.40;;;6.10;;
79365;SDS011;68833;53.160;17.920;2024-02-21T10:18:00;15.30;;;6.60;;
79365;SDS011;68833;53.160;17.920;2024-02-21T10:20:27;11.70;;;6.60;;
79365;SDS011;68833;53.160;17.920;2024-02-21T10:23:03;13.00;;;7.20;;
79365;SDS011;68833;53.160;17.920;2024-02-21T10:25:34;12.10;;;6.00;;
79365;SDS011;68833;53.160;17.920;2024-02-21T10:28:02;10.30;;;5.10;;
79365;SDS011;68833;53.160;17.920;2024-02-21T10:30:29;12.00;;;6.50;;
79365;SDS011;68833;53.160;17.920;2024-02-21T10:32:56;10.80;;;7.10;;
79365;SDS011;68833;53.160;17.920;2024-02-21T11:03:39;11.00;;;6.10;;
79365;SDS011;68833;53.160;17.920;2024-02-21T11:06:06;14.60;;;9.00;;
79365;SDS011;68833;53.160;17.920;2024-02-21T11:08:35;17.50;;;9.90;;
79365;SDS011;68833;53.160;17.920;2024-02-21T11:11:02;13.50;;;8.50;;
79365;SDS011;68833;53.160;17.920;2024-02-21T11:13:32;12.50;;;7.70;;
79365;SDS011;68833;53.160;17.920;2024-02-21T11:18:36;12.90;;;6.80;;
79365;SDS011;68833;53.160;17.920;2024-02-21T11:21:04;13.50;;;7.80;;
79365;SDS011;68833;53.160;17.920;2024-02-21T11:23:32;13.30;;;7.90;;
79365;SDS011;68833;53.160;17.920;2024-02-21T11:26:06;14.00;;;6.70;;
79365;SDS011;68833;53.160;17.920;2024-02-21T11:28:36;7.70;;;5.80;;
79365;SDS011;68833;53.160;17.920;2024-02-21T11:31:06;10.40;;;6.10;;
79365;SDS011;68833;53.160;17.920;2024-02-21T11:33:35;10.50;;;6.00;;
79365;SDS011;68833;53.160;17.920;2024-02-21T11:36:02;12.90;;;6.60;;
79365;SDS011;68833;53.160;17.920;2024-02-21T11:38:31;12.50;;;7.10;;
79365;SDS011;68833;53.160;17.920;2024-02-21T11:40:58;12.00;;;7.00;;
79365;SDS011;68833;53.160;17.920;2024-02-21T11:43:25;10.20;;;7.30;;
79365;SDS011;68833;53.160;17.920;2024-02-21T11:45:59;15.90;;;7.80;;
79365;SDS011;68833;53.160;17.920;2024-02-21T11:48:33;12.10;;;7.50;;
79365;SDS011;68833;53.160;17.920;2024-02-21T11:51:01;9.00;;;5.60;;
79365;SDS011;68833;53.160;17.920;2024-02-21T11:53:30;12.10;;;7.60;;
79365;SDS011;68833;53.160;17.920;2024-02-21T11:55:57;14.10;;;7.20;;
79365;SDS011;68833;53.160;17.920;2024-02-21T11:58:24;13.00;;;7.90;;
79365;SDS011;68833;53.160;17.920;2024-02-21T12:00:53;10.60;;;6.10;;
79365;SDS011;68833;53.160;17.920;2024-02-21T12:03:20;8.00;;;5.50;;
79365;SDS011;68833;53.160;17.920;2024-02-21T12:05:48;9.00;;;5.30;;
79365;SDS011;68833;53.160;17.920;2024-02-21T12:08:15;13.90;;;7.80;;
79365;SDS011;68833;53.160;17.920;2024-02-21T12:10:42;12.80;;;7.10;;
79365;SDS011;68833;53.160;17.920;2024-02-21T12:13:11;8.80;;;5.30;;
79365;SDS011;68833;53.160;17.920;2024-02-21T12:15:38;14.10;;;7.00;;
79365;SDS011;68833;53.160;17.920;2024-02-21T12:18:07;8.50;;;5.10;;
79365;SDS011;68833;53.160;17.920;2024-02-21T12:20:34;11.60;;;6.00;;
79365;SDS011;68833;53.160;17.920;2024-02-21T12:23:02;9.50;;;6.20;;
79365;SDS011;68833;53.160;17.920;2024-02-21T12:25:30;9.80;;;6.20;;
79365;SDS011;68833;53.160;17.920;2024-02-21T12:27:58;13.70;;;8.70;;
79365;SDS011;68833;53.160;17.920;2024-02-21T12:30:26;9.90;;;6.50;;
79365;SDS011;68833;53.160;17.920;2024-02-21T12:32:53;10.60;;;6.80;;
79365;SDS011;68833;53.160;17.920;2024-02-21T12:35:20;9.60;;;5.10;;
79365;SDS011;68833;53.160;17.920;2024-02-21T12:37:47;10.50;;;7.10;;
79365;SDS011;68833;53.160;17.920;2024-02-21T12:40:14;19.40;;;10.40;;
79365;SDS011;68833;53.160;17.920;2024-02-21T12:42:42;14.50;;;8.50;;
79365;SDS011;68833;53.160;17.920;2024-02-21T12:45:09;11.20;;;7.50;;
79365;SDS011;68833;53.160;17.920;2024-02-21T12:47:36;7.80;;;4.90;;
79365;SDS011;68833;53.160;17.920;2024-02-21T12:50:03;8.20;;;4.40;;
79365;SDS011;68833;53.160;17.920;2024-02-21T12:52:33;11.50;;;6.70;;
79365;SDS011;68833;53.160;17.920;2024-02-21T12:55:00;12.90;;;7.20;;
79365;SDS011;68833;53.160;17.920;2024-02-21T12:57:27;13.50;;;7.60;;
79365;SDS011;68833;53.160;17.920;2024-02-21T12:59:54;12.00;;;6.40;;
79365;SDS011;68833;53.160;17.920;2024-02-21T13:02:21;9.20;;;5.60;;
79365;SDS011;68833;53.160;17.920;2024-02-21T13:04:48;11.40;;;6.30;;
79365;SDS011;68833;53.160;17.920;2024-02-21T13:07:15;14.80;;;8.00;;
79365;SDS011;68833;53.160;17.920;2024-02-21T13:09:42;14.10;;;7.90;;
79365;SDS011;68833;53.160;17.920;2024-02-21T13:12:09;14.90;;;8.70;;
79365;SDS011;68833;53.160;17.920;2024-02-21T13:14:38;10.10;;;7.30;;
79365;SDS011;68833;53.160;17.920;2024-02-21T13:17:05;11.00;;;5.80;;
79365;SDS011;68833;53.160;17.920;2024-02-21T13:19:33;9.60;;;6.40;;
79365;SDS011;68833;53.160;17.920;2024-02-21T13:22:00;11.80;;;6.70;;
79365;SDS011;68833;53.160;17.920;2024-02-21T13:24:29;12.80;;;7.00;;
79365;SDS011;68833;53.160;17.920;2024-02-21T13:26:58;14.00;;;8.20;;
79365;SDS011;68833;53.160;17.920;2024-02-21T13:29:25;13.50;;;7.50;;
79365;SDS011;68833;53.160;17.920;2024-02-21T13:31:52;12.20;;;7.30;;
79365;SDS011;68833;53.160;17.920;2024-02-21T13:34:19;11.20;;;7.00;;
79365;SDS011;68833;53.160;17.920;2024-02-21T13:36:46;10.70;;;6.70;;
79365;SDS011;68833;53.160;17.920;2024-02-21T13:39:12;10.30;;;7.40;;
79365;SDS011;68833;53.160;17.920;2024-02-21T13:41:42;13.10;;;7.20;;
79365;SDS011;68833;53.160;17.920;2024-02-21T13:44:09;9.90;;;5.80;;
79365;SDS011;68833;53.160;17.920;2024-02-21T13:46:36;10.50;;;6.90;;
79365;SDS011;68833;53.160;17.920;2024-02-21T13:49:04;13.70;;;8.10;;
79365;SDS011;68833;53.160;17.920;2024-02-21T13:51:35;10.00;;;6.60;;
79365;SDS011;68833;53.160;17.920;2024-02-21T13:54:03;13.50;;;8.30;;
79365;SDS011;68833;53.160;17.920;2024-02-21T13:56:31;15.50;;;8.20;;
79365;SDS011;68833;53.160;17.920;2024-02-21T13:58:58;11.50;;;7.30;;
79365;SDS011;68833;53.160;17.920;2024-02-21T14:01:26;15.50;;;8.00;;
79365;SDS011;68833;53.160;17.920;2024-02-21T14:03:54;13.20;;;7.90;;
79365;SDS011;68833;53.160;17.920;2024-02-21T14:06:21;12.70;;;7.30;;
79365;SDS011;68833;53.160;17.920;2024-02-21T14:08:48;15.70;;;9.10;;
79365;SDS011;68833;53.160;17.920;2024-02-21T14:11:15;14.10;;;8.50;;
79365;SDS011;68833;53.160;17.920;2024-02-21T14:13:42;14.50;;;9.40;;
79365;SDS011;68833;53.160;17.920;2024-02-21T14:16:09;13.40;;;9.40;;
79365;SDS011;68833;53.160;17.920;2024-02-21T14:18:40;12.90;;;7.50;;
79365;SDS011;68833;53.160;17.920;2024-02-21T14:21:13;13.40;;;7.40;;
79365;SDS011;68833;53.160;17.920;2024-02-21T14:23:40;16.90;;;10.30;;
79365;SDS011;68833;53.160;17.920;2024-02-21T14:26:06;18.90;;;9.80;;
79365;SDS011;68833;53.160;17.920;2024-02-21T14:28:34;15.70;;;9.60;;
79365;SDS011;68833;53.160;17.920;2024-02-21T14:31:00;13.90;;;8.80;;
79365;SDS011;68833;53.160;17.920;2024-02-21T14:33:30;18.10;;;9.80;;
79365;SDS011;68833;53.160;17.920;2024-02-21T14:35:57;12.70;;;7.90;;
79365;SDS011;68833;53.160;17.920;2024-02-21T14:38:24;14.40;;;8.40;;
79365;SDS011;68833;53.160;17.920;2024-02-21T14:40:51;18.00;;;9.30;;
79365;SDS011;68833;53.160;17.920;2024-02-21T14:43:19;14.90;;;8.80;;
79365;SDS011;68833;53.160;17.920;2024-02-21T14:45:48;14.70;;;8.60;;
79365;SDS011;68833;53.160;17.920;2024-02-21T14:48:15;15.90;;;7.80;;
79365;SDS011;68833;53.160;17.920;2024-02-21T14:50:43;11.60;;;8.40;;
79365;SDS011;68833;53.160;17.920;2024-02-21T14:53:10;14.20;;;8.90;;
79365;SDS011;68833;53.160;17.920;2024-02-21T14:55:37;15.70;;;8.10;;
79365;SDS011;68833;53.160;17.920;2024-02-21T14:58:11;14.20;;;8.70;;
79365;SDS011;68833;53.160;17.920;2024-02-21T15:00:38;14.00;;;8.30;;
79365;SDS011;68833;53.160;17.920;2024-02-21T15:03:06;11.20;;;7.90;;